Airfield :
LOGIN :

Register | Disclaimer

   EN    FR    IT 

 










Legend :    VFR   Marginal VFR   IFR   Intensive IFR   Very Intensive IFR
Visi :
Ceiling :
>= 8 km
>= 3000ft
5 to 8 km
1000 to 3000 ft
1500m to 5 km
500 to 1000 ft
800 to 1500m
200 to 500 ft
< 800m
< 200 ft
Symbols :   Thunderstorms  Fog  Heavy snow  Heavy precipitations  Wind > 20 kt
SIGMETs :     Misc.  Thunderstorms  Icing  Turbulence  Mountain Waves  Volcanic Ashes






- Airport Elevation : 423 ft
- IATA code : PIS


LFBI - Poitiers

CURRENT METAR :
  • 250300Z AUTO 32004KT CAVOK 16/14 Q1013 NOSIG

EXPIRED METARs :
  • 250230Z AUTO VRB02KT CAVOK 16/14 Q1013 NOSIG
  • 250200Z AUTO 36003KT CAVOK 16/14 Q1013 NOSIG
  • 250130Z AUTO 33002KT CAVOK 17/15 Q1013 NOSIG
  • 250100Z AUTO 34003KT CAVOK 17/15 Q1013 NOSIG
  • 250030Z AUTO 33004KT CAVOK 17/15 Q1014 NOSIG
  • 250000Z AUTO 34004KT CAVOK 18/15 Q1014 NOSIG
  • 242330Z AUTO 33003KT CAVOK 18/15 Q1014 NOSIG
  • 242300Z AUTO 36004KT CAVOK 19/15 Q1014 NOSIG
  • 242230Z AUTO 35004KT CAVOK 20/15 Q1014 NOSIG

TAF TAF LFBI
Valid from the 25 at 00:00 until the 26 at 00:00 UTC


242300Z 2500/2524 02005KT CAVOK



MET'MAP, your aeronautical weather chart ! - Copyright ORBIFLY December 2007 - Disclaimer

ORBIFLY MET'MAP TEAM :

Programming & Development : Alexandra Zaïnal
Original concept : Baudouin d'Aumeries
Technical & hardware support : Manuel Goepfert
Assistance : Marc-Olivier Méhu




SOURCES & CREDITS :

   NOAA